Wetterdaten: Woche 05.11.18 - 11.11.18 (KW45)
Datum Zeit Temp. A. Feuchte A. Luftdruck Regen Wind Richtung Taupunkt Windchill Windben
05.11.2018 00:00 10,1 C 82 % 1018,0 hPa 0,0 l/m 0,0 km/h N 7,2 C 10,1 C 5,6 km/h
05.11.2018 01:00 10,9 C 82 % 1017,7 hPa 0,0 l/m 0,0 km/h N 7,9 C 10,9 C 4,0 km/h
05.11.2018 02:00 10,9 C 82 % 1017,5 hPa 0,0 l/m 0,0 km/h N 8,0 C 10,9 C 4,0 km/h
05.11.2018 03:00 11,1 C 82 % 1017,2 hPa 0,0 l/m 0,0 km/h N 8,2 C 11,1 C 4,0 km/h
05.11.2018 04:00 11,3 C 82 % 1017,2 hPa 0,0 l/m 0,8 km/h N 8,3 C 11,3 C 6,4 km/h
05.11.2018 05:00 11,4 C 82 % 1017,3 hPa 0,0 l/m 0,8 km/h N 8,5 C 11,4 C 4,0 km/h
05.11.2018 06:00 11,5 C 82 % 1017,3 hPa 0,0 l/m 0,1 km/h N 8,6 C 11,5 C 3,7 km/h
05.11.2018 07:00 11,5 C 82 % 1017,7 hPa 0,3 l/m 0,1 km/h N 8,6 C 11,5 C 3,6 km/h
05.11.2018 08:00 11,4 C 82 % 1017,9 hPa 0,0 l/m 0,2 km/h N 8,4 C 11,4 C 4,0 km/h
05.11.2018 09:00 11,1 C 82 % 1018,1 hPa 0,0 l/m 0,4 km/h N 8,1 C 11,1 C 4,0 km/h
05.11.2018 10:00 10,8 C 82 % 1018,2 hPa 0,0 l/m 0,4 km/h N 7,9 C 10,8 C 4,4 km/h
05.11.2018 11:00 11,3 C 82 % 1018,1 hPa 0,0 l/m 1,1 km/h N 8,3 C 11,3 C 7,2 km/h
05.11.2018 12:00 11,8 C 82 % 1017,5 hPa 0,0 l/m 0,9 km/h N 8,8 C 11,8 C 6,4 km/h
05.11.2018 13:00 11,6 C 82 % 1017,1 hPa 0,0 l/m 0,7 km/h N 8,6 C 11,6 C 6,0 km/h
05.11.2018 14:00 11,9 C 82 % 1016,7 hPa 0,0 l/m 1,0 km/h N 8,9 C 11,9 C 6,8 km/h
05.11.2018 15:00 12,4 C 82 % 1016,4 hPa 0,0 l/m 0,7 km/h N 9,5 C 12,4 C 6,0 km/h
05.11.2018 16:00 12,5 C 81 % 1016,3 hPa 0,0 l/m 0,3 km/h N 9,3 C 12,5 C 4,8 km/h
05.11.2018 17:00 12,4 C 81 % 1016,5 hPa 0,0 l/m 0,8 km/h N 9,2 C 12,4 C 5,2 km/h
05.11.2018 18:00 12,4 C 81 % 1016,7 hPa 0,0 l/m 1,7 km/h N 9,3 C 12,4 C 6,8 km/h
05.11.2018 19:00 12,4 C 81 % 1016,6 hPa 0,0 l/m 2,8 km/h N 9,2 C 12,4 C 8,0 km/h
05.11.2018 20:00 12,0 C 81 % 1016,8 hPa 0,0 l/m 2,0 km/h N 8,8 C 12,0 C 6,0 km/h
05.11.2018 21:00 11,8 C 81 % 1017,0 hPa 0,0 l/m 0,6 km/h N 8,6 C 11,8 C 4,0 km/h
05.11.2018 22:00 11,4 C 81 % 1017,1 hPa 0,0 l/m 0,0 km/h N 8,3 C 11,4 C 0,8 km/h
05.11.2018 23:00 9,9 C 81 % 1017,1 hPa 0,0 l/m 0,0 km/h N 6,8 C 9,9 C 0,0 km/h
06.11.2018 00:00 10,5 C 81 % 1017,1 hPa 0,0 l/m 0,4 km/h N 7,3 C 10,5 C 2,8 km/h
06.11.2018 01:00 10,8 C 81 % 1016,9 hPa 0,0 l/m 1,3 km/h N 7,6 C 10,8 C 5,2 km/h
06.11.2018 02:00 10,8 C 81 % 1016,3 hPa 0,0 l/m 2,5 km/h N 7,7 C 10,8 C 8,4 km/h
06.11.2018 03:00 10,8 C 81 % 1015,8 hPa 0,0 l/m 1,5 km/h N 7,6 C 10,8 C 5,6 km/h
06.11.2018 04:00 10,8 C 81 % 1015,2 hPa 0,0 l/m 1,4 km/h N 7,6 C 10,8 C 6,4 km/h
06.11.2018 05:00 10,8 C 81 % 1015,8 hPa 0,0 l/m 0,6 km/h N 7,6 C 10,8 C 9,3 km/h
06.11.2018 06:00 10,6 C 81 % 1016,2 hPa 0,0 l/m 0,5 km/h N 7,5 C 10,6 C 3,2 km/h
06.11.2018 07:00 9,9 C 81 % 1016,6 hPa 0,0 l/m 0,1 km/h N 6,7 C 9,9 C 2,4 km/h
06.11.2018 08:00 10,3 C 81 % 1016,7 hPa 0,0 l/m 0,2 km/h N 7,2 C 10,3 C 4,0 km/h
06.11.2018 09:00 11,6 C 82 % 1016,6 hPa 0,0 l/m 0,4 km/h N 8,6 C 11,6 C 4,4 km/h
06.11.2018 10:00 13,1 C 81 % 1016,6 hPa 0,0 l/m 0,8 km/h N 9,9 C 13,1 C 6,4 km/h
06.11.2018 11:00 15,0 C 80 % 1015,8 hPa 0,0 l/m 3,9 km/h N 11,5 C 15,0 C 11,7 km/h
06.11.2018 12:00 15,9 C 78 % 1015,2 hPa 0,0 l/m 4,6 km/h N 12,1 C 15,9 C 12,1 km/h
06.11.2018 13:00 16,4 C 76 % 1014,9 hPa 0,3 l/m 4,7 km/h N 12,1 C 16,4 C 10,5 km/h
06.11.2018 14:00 16,5 C 74 % 1014,7 hPa 0,0 l/m 4,3 km/h N 11,8 C 16,5 C 12,1 km/h
06.11.2018 15:00 15,9 C 75 % 1014,6 hPa 0,0 l/m 4,2 km/h N 11,4 C 15,9 C 9,3 km/h
06.11.2018 16:00 15,1 C 76 % 1014,5 hPa 0,0 l/m 3,4 km/h N 10,9 C 15,1 C 8,9 km/h
06.11.2018 17:00 14,4 C 78 % 1014,7 hPa 0,0 l/m 2,3 km/h N 10,5 C 14,4 C 7,2 km/h
06.11.2018 18:00 13,7 C 79 % 1014,7 hPa 0,0 l/m 3,2 km/h N 10,1 C 13,7 C 8,4 km/h
06.11.2018 19:00 13,0 C 79 % 1014,8 hPa 0,0 l/m 3,2 km/h N 9,4 C 13,0 C 6,8 km/h
06.11.2018 20:00 12,4 C 78 % 1014,8 hPa 0,0 l/m 3,3 km/h N 8,7 C 12,4 C 7,2 km/h
06.11.2018 21:00 11,9 C 78 % 1015,0 hPa 0,0 l/m 0,7 km/h N 8,2 C 11,9 C 4,8 km/h
06.11.2018 22:00 11,5 C 79 % 1014,9 hPa 0,0 l/m 0,2 km/h N 8,0 C 11,5 C 4,4 km/h
06.11.2018 23:00 11,3 C 79 % 1014,7 hPa 0,0 l/m 0,2 km/h N 7,8 C 11,3 C 2,8 km/h
07.11.2018 00:00 10,0 C 80 % 1014,8 hPa 0,0 l/m 0,2 km/h N 6,7 C 10,0 C 2,8 km/h
07.11.2018 01:00 9,2 C 81 % 1014,7 hPa 0,0 l/m 0,0 km/h N 6,1 C 9,2 C 0,8 km/h
07.11.2018 02:00 9,2 C 81 % 1014,6 hPa 0,0 l/m 0,0 km/h N 6,1 C 9,2 C 0,8 km/h
07.11.2018 03:00 9,1 C 81 % 1014,6 hPa 0,0 l/m 0,0 km/h N 6,0 C 9,1 C 1,2 km/h
07.11.2018 04:00 8,5 C 81 % 1014,8 hPa 0,0 l/m 0,0 km/h N 5,4 C 8,5 C 1,2 km/h
07.11.2018 05:00 7,6 C 81 % 1015,1 hPa 0,0 l/m 0,0 km/h N 4,6 C 7,6 C 1,2 km/h
07.11.2018 06:00 7,3 C 81 % 1015,5 hPa 0,0 l/m 0,0 km/h N 4,2 C 7,3 C 0,0 km/h
07.11.2018 07:00 7,6 C 81 % 1015,9 hPa 0,0 l/m 0,4 km/h N 4,6 C 7,6 C 2,4 km/h
07.11.2018 08:00 9,1 C 82 % 1016,2 hPa 0,0 l/m 1,0 km/h N 6,1 C 9,1 C 5,6 km/h
07.11.2018 09:00 10,1 C 81 % 1016,3 hPa 0,0 l/m 0,6 km/h N 7,0 C 10,1 C 5,2 km/h
07.11.2018 10:00 12,0 C 81 % 1016,1 hPa 0,0 l/m 0,5 km/h N 8,7 C 12,0 C 6,0 km/h
07.11.2018 11:00 13,6 C 79 % 1015,6 hPa 0,0 l/m 1,6 km/h N 10,0 C 13,6 C 8,0 km/h
07.11.2018 12:00 14,2 C 77 % 1015,2 hPa 0,0 l/m 1,8 km/h N 10,1 C 14,2 C 6,8 km/h
07.11.2018 13:00 14,7 C 75 % 1014,6 hPa 0,0 l/m 2,8 km/h N 10,3 C 14,7 C 8,0 km/h
07.11.2018 14:00 14,9 C 75 % 1014,4 hPa 0,0 l/m 1,9 km/h N 10,4 C 14,9 C 6,4 km/h
07.11.2018 15:00 14,8 C 75 % 1014,4 hPa 0,0 l/m 2,8 km/h N 10,4 C 14,8 C 7,6 km/h
07.11.2018 16:00 13,9 C 77 % 1014,4 hPa 0,0 l/m 3,6 km/h N 10,0 C 13,9 C 8,1 km/h
07.11.2018 17:00 13,2 C 79 % 1014,8 hPa 0,0 l/m 1,7 km/h N 9,7 C 13,2 C 6,5 km/h
07.11.2018 18:00 12,8 C 80 % 1014,9 hPa 0,0 l/m 0,5 km/h N 9,4 C 12,8 C 4,4 km/h
07.11.2018 19:00 12,1 C 81 % 1015,0 hPa 0,0 l/m 0,0 km/h N 8,8 C 12,1 C 0,8 km/h
07.11.2018 20:00 10,8 C 81 % 1015,3 hPa 0,0 l/m 0,0 km/h N 7,6 C 10,8 C 0,0 km/h
07.11.2018 21:00 9,8 C 81 % 1015,4 hPa 0,0 l/m 0,0 km/h N 6,6 C 9,8 C 0,0 km/h
07.11.2018 22:00 8,5 C 81 % 1015,5 hPa 0,0 l/m 0,0 km/h N 5,4 C 8,5 C 0,0 km/h
07.11.2018 23:00 7,9 C 81 % 1015,8 hPa 0,0 l/m 0,0 km/h N 4,9 C 7,9 C 0,0 km/h
08.11.2018 00:00 8,1 C 81 % 1015,8 hPa 0,0 l/m 0,0 km/h N 5,0 C 8,1 C 0,8 km/h
08.11.2018 01:00 7,9 C 81 % 1016,3 hPa 0,0 l/m 0,0 km/h N 4,8 C 7,9 C 0,4 km/h
08.11.2018 02:00 7,9 C 82 % 1016,8 hPa 0,0 l/m 0,0 km/h N 4,9 C 7,9 C 0,4 km/h
08.11.2018 03:00 7,2 C 81 % 1017,2 hPa 0,0 l/m 0,0 km/h N 4,2 C 7,2 C 0,0 km/h
08.11.2018 04:00 7,2 C 82 % 1018,0 hPa 0,0 l/m 0,6 km/h N 4,4 C 7,2 C 2,4 km/h
08.11.2018 05:00 9,3 C 82 % 1018,6 hPa 0,0 l/m 3,0 km/h N 6,4 C 9,3 C 8,5 km/h
08.11.2018 06:00 9,6 C 82 % 1019,3 hPa 0,0 l/m 0,4 km/h N 6,7 C 9,6 C 5,2 km/h
08.11.2018 07:00 10,0 C 82 % 1020,2 hPa 0,0 l/m 0,0 km/h N 7,1 C 10,0 C 0,4 km/h
08.11.2018 08:00 10,4 C 82 % 1020,8 hPa 0,0 l/m 0,0 km/h N 7,4 C 10,4 C 0,4 km/h
08.11.2018 09:00 10,4 C 82 % 1021,4 hPa 0,0 l/m 0,0 km/h N 7,5 C 10,4 C 0,4 km/h
08.11.2018 10:00 10,7 C 82 % 1021,8 hPa 0,0 l/m 0,0 km/h N 7,8 C 10,7 C 0,8 km/h
08.11.2018 11:00 11,2 C 82 % 1021,7 hPa 0,0 l/m 1,0 km/h N 8,2 C 11,2 C 3,6 km/h
08.11.2018 12:00 12,4 C 81 % 1021,4 hPa 0,0 l/m 6,2 km/h N 9,2 C 12,2 C 14,5 km/h
08.11.2018 13:00 13,0 C 80 % 1021,4 hPa 0,0 l/m 5,7 km/h N 9,6 C 13,0 C 14,1 km/h
08.11.2018 14:00 13,1 C 79 % 1021,4 hPa 0,0 l/m 4,2 km/h N 9,5 C 13,1 C 9,3 km/h
08.11.2018 15:00 12,7 C 79 % 1021,4 hPa 0,0 l/m 1,5 km/h N 9,2 C 12,7 C 5,6 km/h
08.11.2018 16:00 12,3 C 80 % 1021,3 hPa 0,0 l/m 0,6 km/h N 8,9 C 12,3 C 4,8 km/h
08.11.2018 17:00 12,1 C 80 % 1021,3 hPa 0,0 l/m 0,2 km/h N 8,8 C 12,1 C 3,6 km/h
08.11.2018 18:00 11,8 C 81 % 1021,4 hPa 0,0 l/m 0,1 km/h N 8,6 C 11,8 C 0,8 km/h
08.11.2018 19:00 11,6 C 81 % 1021,6 hPa 0,0 l/m 0,0 km/h N 8,5 C 11,6 C 0,0 km/h
08.11.2018 20:00 11,3 C 81 % 1021,5 hPa 0,0 l/m 0,0 km/h N 8,1 C 11,3 C 0,0 km/h
08.11.2018 21:00 11,1 C 81 % 1021,3 hPa 0,0 l/m 0,0 km/h N 8,0 C 11,1 C 0,0 km/h
08.11.2018 22:00 11,1 C 81 % 1020,8 hPa 0,0 l/m 0,0 km/h N 7,9 C 11,1 C 0,0 km/h
08.11.2018 23:00 10,9 C 81 % 1020,4 hPa 0,0 l/m 0,0 km/h N 7,8 C 10,9 C 0,4 km/h
09.11.2018 00:00 10,8 C 81 % 1019,8 hPa 0,0 l/m 0,0 km/h N 7,6 C 10,8 C 0,0 km/h
09.11.2018 01:00 10,4 C 81 % 1019,2 hPa 0,0 l/m 0,0 km/h N 7,3 C 10,4 C 0,4 km/h
09.11.2018 02:00 9,6 C 81 % 1018,6 hPa 0,0 l/m 0,0 km/h N 6,5 C 9,6 C 0,0 km/h
09.11.2018 03:00 9,3 C 81 % 1018,2 hPa 0,0 l/m 0,0 km/h N 6,2 C 9,3 C 0,8 km/h
09.11.2018 04:00 9,3 C 81 % 1017,8 hPa 0,0 l/m 0,0 km/h N 6,2 C 9,3 C 0,0 km/h
09.11.2018 05:00 9,0 C 81 % 1017,5 hPa 0,0 l/m 0,0 km/h N 5,9 C 9,0 C 0,0 km/h
09.11.2018 06:00 9,1 C 81 % 1017,6 hPa 0,0 l/m 0,0 km/h N 6,0 C 9,1 C 0,8 km/h
09.11.2018 07:00 9,1 C 81 % 1018,0 hPa 0,0 l/m 0,0 km/h N 6,0 C 9,1 C 0,4 km/h
09.11.2018 08:00 9,3 C 81 % 1018,3 hPa 0,0 l/m 0,1 km/h N 6,2 C 9,3 C 3,2 km/h
09.11.2018 09:00 10,0 C 81 % 1018,2 hPa 0,0 l/m 0,0 km/h N 7,0 C 10,0 C 0,4 km/h
09.11.2018 10:00 11,1 C 81 % 1018,0 hPa 0,0 l/m 0,0 km/h N 8,0 C 11,1 C 1,2 km/h
09.11.2018 11:00 12,1 C 81 % 1017,5 hPa 0,0 l/m 0,3 km/h N 8,8 C 12,1 C 4,0 km/h
09.11.2018 12:00 13,5 C 81 % 1016,9 hPa 0,0 l/m 0,4 km/h N 10,3 C 13,5 C 4,4 km/h
09.11.2018 13:00 14,5 C 80 % 1016,5 hPa 0,0 l/m 0,1 km/h N 11,1 C 14,5 C 2,0 km/h
09.11.2018 14:00 14,9 C 78 % 1016,3 hPa 0,0 l/m 0,1 km/h N 11,1 C 14,9 C 3,2 km/h
09.11.2018 15:00 14,0 C 79 % 1016,3 hPa 0,0 l/m 0,0 km/h N 10,4 C 14,0 C 1,2 km/h
09.11.2018 16:00 12,5 C 80 % 1016,3 hPa 0,0 l/m 0,0 km/h N 9,2 C 12,5 C 0,0 km/h
09.11.2018 17:00 11,4 C 81 % 1016,6 hPa 0,0 l/m 0,0 km/h N 8,2 C 11,4 C 0,0 km/h
09.11.2018 18:00 10,6 C 81 % 1016,5 hPa 0,0 l/m 0,0 km/h N 7,5 C 10,6 C 0,0 km/h
09.11.2018 19:00 10,0 C 81 % 1016,4 hPa 0,0 l/m 0,0 km/h N 6,9 C 10,0 C 0,0 km/h
09.11.2018 20:00 9,3 C 81 % 1016,3 hPa 0,0 l/m 0,0 km/h N 6,2 C 9,3 C 0,0 km/h
09.11.2018 21:00 8,7 C 81 % 1016,0 hPa 0,0 l/m 0,0 km/h N 5,6 C 8,7 C 0,0 km/h
09.11.2018 22:00 8,2 C 81 % 1015,6 hPa 0,0 l/m 0,0 km/h N 5,2 C 8,2 C 0,0 km/h
09.11.2018 23:00 7,8 C 81 % 1015,4 hPa 0,0 l/m 0,0 km/h N 4,8 C 7,8 C 0,0 km/h
10.11.2018 00:00 8,3 C 81 % 1015,0 hPa 0,0 l/m 0,0 km/h N 5,2 C 8,3 C 0,0 km/h
10.11.2018 01:00 8,6 C 81 % 1014,6 hPa 0,0 l/m 0,0 km/h N 5,6 C 8,6 C 0,0 km/h
10.11.2018 02:00 8,6 C 81 % 1014,7 hPa 0,0 l/m 0,0 km/h N 5,6 C 8,6 C 1,2 km/h
10.11.2018 03:00 8,6 C 82 % 1014,5 hPa 0,0 l/m 0,0 km/h N 5,7 C 8,6 C 0,0 km/h
10.11.2018 04:00 8,8 C 82 % 1014,1 hPa 0,0 l/m 0,0 km/h N 5,9 C 8,8 C 1,2 km/h
10.11.2018 05:00 9,1 C 82 % 1013,8 hPa 0,0 l/m 0,0 km/h N 6,1 C 9,1 C 2,4 km/h
10.11.2018 06:00 9,2 C 82 % 1013,9 hPa 0,0 l/m 0,0 km/h N 6,3 C 9,2 C 1,2 km/h
10.11.2018 07:00 9,2 C 82 % 1013,9 hPa 0,0 l/m 0,1 km/h N 6,3 C 9,2 C 2,4 km/h
10.11.2018 08:00 9,3 C 82 % 1014,0 hPa 0,0 l/m 0,1 km/h N 6,4 C 9,3 C 2,8 km/h
10.11.2018 09:00 9,4 C 82 % 1013,9 hPa 0,0 l/m 0,2 km/h N 6,5 C 9,4 C 4,4 km/h
10.11.2018 10:00 9,8 C 82 % 1014,0 hPa 0,0 l/m 0,1 km/h N 6,8 C 9,8 C 3,2 km/h
10.11.2018 11:00 9,9 C 82 % 1013,7 hPa 0,0 l/m 0,3 km/h N 7,0 C 9,9 C 4,8 km/h
10.11.2018 12:00 10,1 C 82 % 1013,3 hPa 0,0 l/m 0,3 km/h N 7,1 C 10,1 C 4,8 km/h
10.11.2018 13:00 10,4 C 82 % 1012,9 hPa 0,0 l/m 0,3 km/h N 7,4 C 10,4 C 4,8 km/h
10.11.2018 14:00 10,8 C 82 % 1012,5 hPa 0,0 l/m 0,2 km/h N 7,8 C 10,8 C 5,2 km/h
10.11.2018 15:00 10,7 C 81 % 1012,5 hPa 0,0 l/m 0,4 km/h N 7,6 C 10,7 C 5,2 km/h
10.11.2018 16:00 10,4 C 81 % 1012,7 hPa 0,0 l/m 0,2 km/h N 7,3 C 10,4 C 3,6 km/h
10.11.2018 17:00 10,3 C 81 % 1012,9 hPa 0,0 l/m 0,1 km/h N 7,2 C 10,3 C 3,2 km/h
10.11.2018 18:00 10,1 C 81 % 1013,0 hPa 0,0 l/m 0,2 km/h N 7,0 C 10,1 C 4,0 km/h
10.11.2018 19:00 10,0 C 81 % 1012,9 hPa 0,0 l/m 0,1 km/h N 6,9 C 10,0 C 2,4 km/h
10.11.2018 20:00 9,9 C 81 % 1012,8 hPa 0,0 l/m 0,0 km/h N 6,8 C 9,9 C 2,0 km/h
10.11.2018 21:00 9,8 C 81 % 1012,8 hPa 0,0 l/m 0,0 km/h N 6,6 C 9,8 C 1,6 km/h
10.11.2018 22:00 9,6 C 81 % 1012,7 hPa 0,0 l/m 0,0 km/h N 6,5 C 9,6 C 1,6 km/h
10.11.2018 23:00 9,6 C 81 % 1012,5 hPa 0,0 l/m 0,0 km/h N 6,5 C 9,6 C 1,2 km/h
11.11.2018 00:00 9,4 C 81 % 1012,3 hPa 0,0 l/m 0,0 km/h N 6,3 C 9,4 C 2,0 km/h
11.11.2018 01:00 9,3 C 81 % 1012,4 hPa 0,0 l/m 0,0 km/h N 6,2 C 9,3 C 0,4 km/h
11.11.2018 02:00 9,2 C 82 % 1012,5 hPa 0,0 l/m 0,0 km/h N 6,3 C 9,2 C 0,8 km/h
11.11.2018 03:00 9,2 C 82 % 1012,5 hPa 0,0 l/m 0,0 km/h N 6,2 C 9,2 C 0,0 km/h
11.11.2018 04:00 9,0 C 82 % 1012,8 hPa 0,0 l/m 0,0 km/h N 6,1 C 9,0 C 0,0 km/h
11.11.2018 05:00 8,9 C 82 % 1013,3 hPa 0,0 l/m 0,0 km/h N 6,0 C 8,9 C 0,0 km/h
11.11.2018 06:00 8,9 C 82 % 1013,9 hPa 0,0 l/m 0,0 km/h N 6,0 C 8,9 C 0,0 km/h
11.11.2018 07:00 8,8 C 82 % 1014,7 hPa 0,0 l/m 0,0 km/h N 5,9 C 8,8 C 0,0 km/h
11.11.2018 08:00 9,1 C 82 % 1015,1 hPa 0,0 l/m 0,0 km/h N 6,2 C 9,1 C 0,4 km/h
11.11.2018 09:00 9,5 C 82 % 1015,6 hPa 0,0 l/m 0,0 km/h N 6,6 C 9,5 C 0,4 km/h
11.11.2018 10:00 9,6 C 82 % 1016,2 hPa 0,0 l/m 0,4 km/h N 6,7 C 9,6 C 4,0 km/h
11.11.2018 11:00 10,6 C 81 % 1016,7 hPa 0,0 l/m 0,6 km/h N 7,4 C 10,6 C 6,0 km/h
11.11.2018 12:00 11,2 C 81 % 1016,9 hPa 0,0 l/m 0,3 km/h N 8,1 C 11,2 C 3,6 km/h
11.11.2018 13:00 12,2 C 80 % 1017,2 hPa 0,0 l/m 0,1 km/h N 8,9 C 12,2 C 2,4 km/h
11.11.2018 14:00 12,1 C 80 % 1017,7 hPa 0,0 l/m 0,0 km/h N 8,7 C 12,1 C 1,6 km/h
11.11.2018 15:00 11,4 C 80 % 1018,4 hPa 0,0 l/m 0,0 km/h N 8,0 C 11,4 C 1,2 km/h
11.11.2018 16:00 10,6 C 81 % 1019,1 hPa 0,0 l/m 0,0 km/h N 7,5 C 10,6 C 1,6 km/h
11.11.2018 17:00 10,0 C 81 % 1019,6 hPa 0,0 l/m 0,1 km/h N 6,9 C 10,0 C 2,8 km/h
11.11.2018 18:00 9,6 C 82 % 1019,9 hPa 0,0 l/m 0,0 km/h N 6,5 C 9,6 C 0,4 km/h
11.11.2018 19:00 8,3 C 82 % 1020,0 hPa 0,0 l/m 0,0 km/h N 5,4 C 8,3 C 0,0 km/h
11.11.2018 20:00 6,7 C 82 % 1020,3 hPa 0,0 l/m 0,0 km/h N 3,8 C 6,7 C 0,0 km/h
11.11.2018 21:00 5,5 C 82 % 1020,6 hPa 0,0 l/m 0,0 km/h N 2,6 C 5,5 C 0,0 km/h
11.11.2018 22:00 4,7 C 82 % 1020,8 hPa 0,0 l/m 0,0 km/h N 1,9 C 4,7 C 0,0 km/h
11.11.2018 23:00 4,6 C 82 % 1020,9 hPa 0,0 l/m 0,0 km/h N 1,7 C 4,6 C 0,0 km/h
Min-Datum _ 11.11.18 06.11.18 11.11.18 - 05.11.18 - 11.11.18 11.11.18 05.11.18
_ Min-Zeit 23:15 14:30 00:45 - 00:00 - 23:00 23:00 22:30
Minimum _ 4,3 C 73 % 1012,2 hPa - 0,0 km/h - 1,5 C 4,3 C 0,0 km/h
Max-Datum _ 06.11.18 07.11.18 08.11.18 05.11.18 08.11.18 - 06.11.18 06.11.18 08.11.18
_ Max-Zeit 14:00 08:15 10:30 07:15 12:45 - 12:45 14:00 12:15
Maximum _ 16,6 C 84 % 1021,9 hPa 0,3 l/m 7,7 km/h
N
- 12,2 C 16,6 C 16,1 km/h
N
Durchschnitt _ 10,7 C 81 % 1016,5 hPa #0,5 l/m 0,7 km/h N 7,5 C 10,7 C 3,3 km/h